Moncada, Spain
Current Conditions -  °F | °C
As of 10:30 AM on Friday 31 Oct 2014 (Local Time) from LEVC Reporting Station
Few Clouds Few Clouds  
Wind Chill: 70°   Ceiling: Unl
Heat Index: 70°   Visibility: 6mi
Dew Point: 57°   Wind: 1mph
Humidity: 64%   Direction: NA
Pressure: 30.27"   Gusts: NA
Location:  39.55°N, 0.4°W
Report Text: LEVC 310930Z VRB01KT 9999 FEW035 21/14 Q1025 NOSIG
Loading
Personal Weather Stations






























Interactive Weather Map
Tropical Storm Tracking
New forecast layout! Learn more

10-Day Weather Forecast

Advertisements
Track Severe Weather on mobile